createdAt,value
2017-08-14T00:00:43.634Z,71.70
2017-08-14T00:03:11.236Z,71.50
2017-08-14T00:05:38.681Z,71.50
2017-08-14T00:08:06.144Z,71.50
2017-08-14T00:10:33.732Z,71.40
2017-08-14T00:13:01.180Z,71.50
2017-08-14T00:15:28.649Z,71.60
2017-08-14T00:17:56.110Z,71.60
2017-08-14T00:20:23.590Z,71.50
2017-08-14T00:22:51.031Z,71.50
2017-08-14T00:25:18.492Z,71.60
2017-08-14T00:27:47.668Z,71.70
2017-08-14T00:30:15.124Z,71.90
2017-08-14T00:32:43.352Z,72.00
2017-08-14T00:35:10.813Z,71.80
2017-08-14T00:37:38.269Z,71.80
2017-08-14T00:40:05.717Z,71.80
2017-08-14T00:42:33.183Z,72.00
2017-08-14T00:45:00.648Z,71.90
2017-08-14T00:47:28.107Z,71.90
2017-08-14T00:49:55.545Z,71.90
2017-08-14T00:52:23.776Z,71.90
2017-08-14T00:54:51.242Z,71.80
2017-08-14T00:57:18.708Z,72.00
2017-08-14T00:59:46.169Z,72.00
2017-08-14T01:02:13.627Z,72.10
2017-08-14T01:04:41.316Z,72.10
2017-08-14T01:07:08.759Z,71.90
2017-08-14T01:09:36.217Z,71.80
2017-08-14T01:12:03.664Z,71.80
2017-08-14T01:14:31.147Z,71.90
2017-08-14T01:16:58.609Z,72.00
2017-08-14T01:19:26.060Z,72.00
2017-08-14T01:21:53.536Z,72.00
2017-08-14T01:24:21.808Z,72.10
2017-08-14T01:26:49.263Z,72.10
2017-08-14T01:29:16.712Z,72.10
2017-08-14T01:31:44.164Z,72.20
2017-08-14T01:34:11.620Z,72.30
2017-08-14T01:36:39.080Z,72.20
2017-08-14T01:39:06.529Z,72.40
2017-08-14T01:41:34.739Z,72.40
2017-08-14T01:44:02.179Z,72.40
2017-08-14T01:46:30.400Z,72.60
2017-08-14T01:48:57.873Z,72.50
2017-08-14T01:51:25.312Z,72.60
2017-08-14T01:53:52.765Z,72.50
2017-08-14T01:56:20.216Z,72.70
2017-08-14T01:58:47.672Z,72.90
2017-08-14T02:01:15.884Z,73.10
2017-08-14T02:03:43.350Z,73.00
2017-08-14T02:06:10.811Z,73.10
2017-08-14T02:08:38.285Z,73.20
2017-08-14T02:11:05.753Z,73.20
2017-08-14T02:13:33.553Z,73.10
2017-08-14T02:16:01.089Z,73.20
2017-08-14T02:18:28.548Z,73.30
2017-08-14T02:20:56.000Z,73.10
2017-08-14T02:23:23.464Z,73.10
2017-08-14T02:25:50.917Z,73.10
2017-08-14T02:28:18.364Z,73.10
2017-08-14T02:30:46.140Z,73.20
2017-08-14T02:33:13.580Z,73.30
2017-08-14T02:35:41.801Z,73.40
2017-08-14T02:38:09.253Z,73.40
2017-08-14T02:40:37.209Z,73.30
2017-08-14T02:43:05.181Z,73.30
2017-08-14T02:45:32.696Z,73.30
2017-08-14T02:48:00.190Z,73.40
2017-08-14T02:50:28.417Z,73.70
2017-08-14T02:52:55.877Z,73.70
2017-08-14T02:55:23.744Z,73.80
2017-08-14T02:57:51.203Z,73.90
2017-08-14T03:00:18.665Z,73.90
2017-08-14T03:02:46.130Z,73.80
2017-08-14T03:05:13.581Z,73.70
2017-08-14T03:07:41.068Z,73.90
2017-08-14T03:10:08.521Z,74.10
2017-08-14T03:12:35.992Z,74.20
2017-08-14T03:15:03.453Z,74.20
2017-08-14T03:17:30.896Z,74.10
2017-08-14T03:19:58.357Z,74.20
2017-08-14T03:22:25.812Z,74.10
2017-08-14T03:24:54.053Z,74.40
2017-08-14T03:27:21.509Z,74.40
2017-08-14T03:29:48.969Z,74.30
2017-08-14T03:32:16.431Z,74.40
2017-08-14T03:34:44.001Z,74.10
2017-08-14T03:37:11.445Z,74.20
2017-08-14T03:39:38.878Z,74.30
2017-08-14T03:42:06.317Z,74.10
2017-08-14T03:44:34.522Z,74.40
2017-08-14T03:47:02.020Z,74.40
2017-08-14T03:49:29.465Z,74.60
2017-08-14T03:51:56.921Z,74.50
2017-08-14T03:54:24.360Z,74.40
2017-08-14T03:56:52.580Z,74.30
2017-08-14T03:59:20.040Z,74.30
2017-08-14T04:01:47.492Z,74.40
2017-08-14T04:04:14.950Z,74.50
2017-08-14T04:06:42.404Z,74.50
2017-08-14T04:09:09.856Z,74.50
2017-08-14T04:11:37.380Z,74.60
2017-08-14T04:14:04.828Z,74.80
2017-08-14T04:16:32.273Z,74.80
2017-08-14T04:18:59.723Z,74.80
2017-08-14T04:21:27.177Z,74.90
2017-08-14T04:23:55.097Z,75.00
2017-08-14T04:26:22.558Z,75.30
2017-08-14T04:28:50.013Z,75.50
2017-08-14T04:31:17.468Z,75.70
2017-08-14T04:33:44.916Z,75.70
2017-08-14T04:36:12.380Z,75.80
2017-08-14T04:38:39.880Z,75.60
2017-08-14T04:41:07.337Z,75.40
2017-08-14T04:43:34.794Z,75.40
2017-08-14T04:46:02.249Z,75.40
2017-08-14T04:48:29.706Z,75.50
2017-08-14T04:50:57.161Z,75.50
2017-08-14T04:53:24.624Z,75.70
2017-08-14T04:55:52.081Z,75.80
2017-08-14T04:58:19.534Z,75.80
2017-08-14T05:00:46.992Z,75.90
2017-08-14T05:03:14.451Z,75.90
2017-08-14T05:05:41.908Z,75.70
2017-08-14T05:08:10.132Z,75.60
2017-08-14T05:10:37.592Z,75.50
2017-08-14T05:13:05.049Z,75.40
2017-08-14T05:15:32.503Z,75.50
2017-08-14T05:17:59.943Z,75.50
2017-08-14T05:20:27.411Z,75.50
2017-08-14T05:22:54.924Z,75.80
2017-08-14T05:25:22.377Z,76.00
2017-08-14T05:27:49.831Z,76.10
2017-08-14T05:30:17.292Z,76.10
2017-08-14T05:32:44.745Z,76.20
2017-08-14T05:35:12.202Z,76.40
2017-08-14T05:37:39.662Z,76.50
2017-08-14T05:40:07.117Z,76.50
2017-08-14T05:42:34.620Z,76.70
2017-08-14T05:45:02.069Z,76.70
2017-08-14T05:47:29.540Z,76.80
2017-08-14T05:49:57.005Z,76.80
2017-08-14T05:52:24.470Z,77.00
2017-08-14T05:54:51.921Z,77.00
2017-08-14T05:57:19.392Z,77.10
2017-08-14T05:59:46.840Z,77.00
2017-08-14T06:02:14.299Z,77.10
2017-08-14T06:04:41.769Z,77.10
2017-08-14T06:07:09.253Z,77.10
2017-08-14T06:09:36.708Z,77.20
2017-08-14T06:12:04.166Z,77.30
2017-08-14T06:14:31.624Z,77.20
2017-08-14T06:16:59.073Z,77.30
2017-08-14T06:19:26.533Z,77.30
2017-08-14T06:21:53.985Z,77.40
2017-08-14T06:24:21.457Z,77.30
2017-08-14T06:26:48.901Z,77.30
2017-08-14T06:29:17.121Z,77.40
2017-08-14T06:31:44.568Z,77.40
2017-08-14T06:34:12.029Z,77.50
2017-08-14T06:36:39.484Z,77.40
2017-08-14T06:39:06.941Z,77.70
2017-08-14T06:41:34.408Z,77.80
2017-08-14T06:44:01.936Z,77.70
2017-08-14T06:46:29.472Z,77.70
2017-08-14T06:48:56.933Z,77.60
2017-08-14T06:51:24.392Z,77.50
2017-08-14T06:53:51.849Z,77.60
2017-08-14T06:56:19.304Z,77.50
2017-08-14T06:58:46.764Z,77.40
2017-08-14T07:01:14.228Z,77.40
2017-08-14T07:03:41.689Z,77.30
2017-08-14T07:06:09.176Z,77.30
2017-08-14T07:08:36.637Z,77.40
2017-08-14T07:11:04.107Z,77.30
2017-08-14T07:13:31.564Z,77.40
2017-08-14T07:15:59.037Z,78.40
2017-08-14T07:18:26.505Z,77.30
2017-08-14T07:20:53.961Z,77.30
2017-08-14T07:23:21.416Z,77.40
2017-08-14T07:25:48.872Z,77.50
2017-08-14T07:28:16.328Z,77.50
2017-08-14T07:30:43.792Z,77.50
2017-08-14T07:33:11.241Z,77.50
2017-08-14T07:35:38.702Z,77.60
2017-08-14T07:38:06.164Z,77.60
2017-08-14T07:40:33.629Z,77.60
2017-08-14T07:43:01.096Z,77.60
2017-08-14T07:45:28.547Z,77.70
2017-08-14T07:47:55.984Z,77.70
2017-08-14T07:50:24.221Z,77.70
2017-08-14T07:52:51.674Z,77.70
2017-08-14T07:55:19.135Z,77.70
2017-08-14T07:57:46.648Z,77.70
2017-08-14T08:00:14.879Z,77.70
2017-08-14T08:02:42.325Z,77.80
2017-08-14T08:05:09.777Z,77.80
2017-08-14T08:07:37.252Z,77.80
2017-08-14T08:10:04.720Z,78.00
2017-08-14T08:12:32.198Z,77.80
2017-08-14T08:14:59.644Z,77.70
2017-08-14T08:17:27.124Z,77.50
2017-08-14T08:19:54.564Z,77.50
2017-08-14T08:22:22.016Z,77.60
2017-08-14T08:24:49.608Z,77.60
2017-08-14T08:27:17.070Z,77.70
2017-08-14T08:29:45.337Z,78.00
2017-08-14T08:32:12.789Z,78.60
2017-08-14T08:34:40.292Z,77.90
2017-08-14T08:37:07.753Z,77.90
2017-08-14T08:39:35.220Z,78.00
2017-08-14T08:42:02.667Z,78.20
2017-08-14T08:44:30.121Z,78.30
2017-08-14T08:46:57.584Z,78.20
2017-08-14T08:49:25.045Z,78.10
2017-08-14T08:51:52.505Z,78.30
2017-08-14T08:54:19.961Z,77.60
2017-08-14T08:56:47.433Z,77.40
2017-08-14T08:59:14.893Z,78.00
2017-08-14T09:01:42.393Z,76.80
2017-08-14T09:04:09.849Z,77.50
2017-08-14T09:06:37.296Z,77.10
2017-08-14T09:09:04.770Z,76.80
2017-08-14T09:11:32.231Z,76.50
2017-08-14T09:13:59.695Z,76.40
2017-08-14T09:16:27.149Z,76.20
2017-08-14T09:18:54.616Z,75.70
2017-08-14T09:21:22.077Z,75.60
2017-08-14T09:23:49.525Z,75.80
2017-08-14T09:26:16.981Z,75.70
2017-08-14T09:28:44.450Z,75.60
2017-08-14T09:31:11.909Z,75.40
2017-08-14T09:33:39.376Z,75.30
2017-08-14T09:36:07.397Z,75.60
2017-08-14T09:38:34.849Z,75.60
2017-08-14T09:41:02.336Z,75.60
2017-08-14T09:43:30.563Z,75.40
2017-08-14T09:45:58.011Z,75.30
2017-08-14T09:48:25.457Z,75.30
2017-08-14T09:50:53.677Z,75.00
2017-08-14T09:53:21.129Z,75.00
2017-08-14T09:55:48.585Z,74.80
2017-08-14T09:58:16.037Z,74.50
2017-08-14T10:00:43.496Z,74.50
2017-08-14T10:03:10.956Z,74.70
2017-08-14T10:05:38.421Z,74.40
2017-08-14T10:08:05.881Z,74.40
2017-08-14T10:10:33.336Z,74.00
2017-08-14T10:13:01.553Z,73.10
2017-08-14T10:15:29.517Z,73.10
2017-08-14T10:17:56.981Z,71.90
2017-08-14T10:20:24.446Z,72.20
2017-08-14T10:22:51.894Z,72.20
2017-08-14T10:25:19.349Z,71.80
2017-08-14T10:27:46.808Z,71.50
2017-08-14T10:30:15.024Z,71.70
2017-08-14T10:32:42.493Z,71.70
2017-08-14T10:35:09.964Z,72.00
2017-08-14T10:37:37.421Z,72.10
2017-08-14T10:40:04.961Z,72.20
2017-08-14T10:42:32.406Z,71.80
2017-08-14T10:44:59.854Z,71.40
2017-08-14T10:47:28.133Z,70.20
2017-08-14T10:49:56.390Z,69.20
2017-08-14T10:52:23.848Z,69.80
2017-08-14T10:54:51.312Z,69.80
2017-08-14T10:57:19.285Z,70.20
2017-08-14T10:59:46.756Z,69.60
2017-08-14T11:02:14.213Z,69.60
2017-08-14T11:04:41.676Z,69.70
2017-08-14T11:07:09.139Z,69.80
2017-08-14T11:09:36.587Z,69.90
2017-08-14T11:12:04.066Z,69.40
2017-08-14T11:14:31.512Z,69.00
2017-08-14T11:16:58.969Z,68.20
2017-08-14T11:19:27.339Z,68.30
2017-08-14T11:21:54.796Z,68.60
2017-08-14T11:24:23.054Z,68.70
2017-08-14T11:26:51.293Z,68.70
2017-08-14T11:29:18.752Z,68.60
2017-08-14T11:31:46.275Z,68.10
2017-08-14T11:34:14.501Z,68.10
2017-08-14T11:36:41.948Z,68.10
2017-08-14T11:39:09.413Z,67.90
2017-08-14T11:41:36.881Z,67.80
2017-08-14T11:44:05.032Z,67.50
2017-08-14T11:46:32.489Z,66.50
2017-08-14T11:49:00.300Z,66.10
2017-08-14T11:51:27.800Z,65.10
2017-08-14T11:53:56.037Z,64.10
2017-08-14T11:56:23.493Z,64.10
2017-08-14T11:58:50.957Z,63.80
2017-08-14T12:01:18.417Z,64.10
2017-08-14T12:03:45.938Z,62.50
2017-08-14T12:06:14.183Z,62.10
2017-08-14T12:08:41.650Z,62.00
2017-08-14T12:11:09.104Z,62.30
2017-08-14T12:13:36.570Z,61.40
2017-08-14T12:16:04.016Z,60.90
2017-08-14T12:18:31.472Z,61.60
2017-08-14T12:20:58.950Z,62.00
2017-08-14T12:23:26.440Z,61.20
2017-08-14T12:25:53.913Z,61.60
2017-08-14T12:28:21.398Z,61.90
2017-08-14T12:30:48.866Z,60.00
2017-08-14T12:33:16.334Z,59.70
2017-08-14T12:35:43.804Z,60.30
2017-08-14T12:38:11.277Z,60.50
2017-08-14T12:40:38.777Z,60.30
2017-08-14T12:43:06.227Z,60.70
2017-08-14T12:45:33.696Z,59.60
2017-08-14T12:48:01.157Z,60.30
2017-08-14T12:50:28.710Z,59.00
2017-08-14T12:52:56.185Z,58.40
2017-08-14T12:55:23.657Z,58.90
2017-08-14T12:57:51.127Z,59.20
2017-08-14T13:00:18.614Z,59.90
2017-08-14T13:02:46.069Z,60.00
2017-08-14T13:05:14.300Z,59.00
2017-08-14T13:07:41.773Z,59.10
2017-08-14T13:10:09.254Z,59.20
2017-08-14T13:12:36.720Z,59.50
2017-08-14T13:15:04.178Z,59.10
2017-08-14T13:17:31.665Z,59.50
2017-08-14T13:19:59.882Z,58.90
2017-08-14T13:22:27.349Z,58.90
2017-08-14T13:24:54.804Z,57.00
2017-08-14T13:27:22.257Z,57.60
2017-08-14T13:29:49.737Z,57.70
2017-08-14T13:32:17.197Z,58.20
2017-08-14T13:34:44.657Z,58.10
2017-08-14T13:37:12.109Z,57.70
2017-08-14T13:39:39.568Z,58.40
2017-08-14T13:42:07.027Z,58.00
2017-08-14T13:44:34.484Z,58.50
2017-08-14T13:47:01.945Z,58.00
2017-08-14T13:49:29.389Z,57.90
2017-08-14T13:51:56.846Z,58.00
2017-08-14T13:54:24.297Z,56.70
2017-08-14T13:56:51.757Z,57.70
2017-08-14T13:59:19.202Z,57.20
2017-08-14T14:01:46.652Z,57.90
2017-08-14T14:04:14.178Z,57.90
2017-08-14T14:06:42.505Z,58.00
2017-08-14T14:09:09.975Z,58.00
2017-08-14T14:11:37.475Z,58.50
2017-08-14T14:14:05.754Z,57.80
2017-08-14T14:16:33.248Z,57.80
2017-08-14T14:19:00.736Z,57.80
2017-08-14T14:21:28.181Z,57.80
2017-08-14T14:23:55.681Z,57.80
2017-08-14T14:26:23.152Z,57.80
2017-08-14T14:28:50.622Z,57.70
2017-08-14T14:31:18.860Z,57.60
2017-08-14T14:33:46.327Z,57.50
2017-08-14T14:36:13.784Z,57.80
2017-08-14T14:38:41.941Z,57.50
2017-08-14T14:41:09.420Z,57.10
2017-08-14T14:43:36.881Z,57.60
2017-08-14T14:46:04.340Z,56.20
2017-08-14T14:48:31.809Z,56.50
2017-08-14T14:50:59.277Z,56.90
2017-08-14T14:53:26.737Z,57.30
2017-08-14T14:55:54.195Z,57.30
2017-08-14T14:58:21.661Z,57.20
2017-08-14T15:00:49.113Z,56.70
2017-08-14T15:03:16.649Z,56.30
2017-08-14T15:05:44.873Z,56.70
2017-08-14T15:08:12.329Z,56.50
2017-08-14T15:10:39.802Z,57.20
2017-08-14T15:13:07.261Z,56.60
2017-08-14T15:15:34.722Z,56.60
2017-08-14T15:18:02.213Z,56.10
2017-08-14T15:20:29.696Z,56.20
2017-08-14T15:22:57.148Z,56.10
2017-08-14T15:25:24.608Z,57.00
2017-08-14T15:27:52.069Z,57.30
2017-08-14T15:30:19.532Z,57.50
2017-08-14T15:32:46.989Z,57.40
2017-08-14T15:35:14.432Z,57.00
2017-08-14T15:37:41.900Z,57.10
2017-08-14T15:40:09.361Z,57.00
2017-08-14T15:42:36.824Z,56.60
2017-08-14T15:45:04.289Z,56.40
2017-08-14T15:47:32.304Z,56.50
2017-08-14T15:49:59.784Z,56.50
2017-08-14T15:52:28.020Z,56.90
2017-08-14T15:54:55.508Z,56.90
2017-08-14T15:57:23.740Z,57.30
2017-08-14T15:59:51.197Z,57.70
2017-08-14T16:02:18.656Z,57.60
2017-08-14T16:04:46.129Z,57.80
2017-08-14T16:07:13.596Z,57.90
2017-08-14T16:09:41.096Z,57.90
2017-08-14T16:12:08.589Z,57.80
2017-08-14T16:14:36.843Z,58.20
2017-08-14T16:17:04.280Z,58.00
2017-08-14T16:19:43.413Z,58.20
2017-08-14T16:22:10.882Z,58.30
2017-08-14T16:24:38.341Z,58.40
2017-08-14T16:27:05.793Z,58.30
2017-08-14T16:29:33.253Z,58.30
2017-08-14T16:32:00.733Z,58.40
2017-08-14T16:34:28.483Z,58.30
2017-08-14T16:36:55.944Z,58.40
2017-08-14T16:39:23.413Z,58.40
2017-08-14T16:41:50.868Z,58.50
2017-08-14T16:44:18.418Z,58.50
2017-08-14T16:46:45.861Z,58.50
2017-08-14T16:49:13.317Z,58.50
2017-08-14T16:51:41.547Z,58.50
2017-08-14T16:54:09.018Z,58.50
2017-08-14T16:56:36.476Z,58.60
2017-08-14T16:59:03.964Z,58.60
2017-08-14T17:01:31.409Z,58.80
2017-08-14T17:03:58.860Z,58.80
2017-08-14T17:06:26.468Z,58.90
2017-08-14T17:08:54.701Z,58.80
2017-08-14T17:11:22.160Z,58.80
2017-08-14T17:13:49.634Z,58.90
2017-08-14T17:16:17.434Z,59.10
2017-08-14T17:18:44.997Z,59.10
2017-08-14T17:21:12.440Z,59.10
2017-08-14T17:23:39.894Z,59.10
2017-08-14T17:26:07.361Z,59.10
2017-08-14T17:28:34.820Z,59.20
2017-08-14T17:31:02.287Z,59.30
2017-08-14T17:33:29.749Z,59.40
2017-08-14T17:35:57.205Z,59.50
2017-08-14T17:38:24.665Z,59.60
2017-08-14T17:40:52.111Z,59.70
2017-08-14T17:43:19.560Z,59.90
2017-08-14T17:45:47.012Z,60.00
2017-08-14T17:48:15.225Z,60.30
2017-08-14T17:50:42.671Z,60.30
2017-08-14T17:53:10.153Z,60.40
2017-08-14T17:55:37.603Z,60.60
2017-08-14T17:58:05.102Z,60.70
2017-08-14T18:00:32.671Z,60.80
2017-08-14T18:03:00.120Z,60.90
2017-08-14T18:05:29.180Z,61.00
2017-08-14T18:07:56.656Z,61.10
2017-08-14T18:10:24.116Z,61.30
2017-08-14T18:12:51.634Z,61.30
2017-08-14T18:15:19.112Z,61.40
2017-08-14T18:17:47.330Z,61.60
2017-08-14T18:20:14.800Z,61.60
2017-08-14T18:22:42.252Z,61.70
2017-08-14T18:25:09.717Z,61.80
2017-08-14T18:27:37.191Z,61.90
2017-08-14T18:30:05.974Z,62.30
2017-08-14T18:35:07.581Z,63.90
2017-08-14T18:37:35.034Z,63.80
2017-08-14T18:40:02.501Z,64.20
2017-08-14T18:42:29.961Z,64.60
2017-08-14T18:44:57.425Z,64.90
2017-08-14T18:47:24.880Z,65.00
2017-08-14T18:49:52.337Z,65.20
2017-08-14T18:52:19.789Z,65.30
2017-08-14T18:54:47.244Z,65.40
2017-08-14T18:57:14.700Z,65.60
2017-08-14T18:59:42.164Z,65.70
2017-08-14T19:02:09.624Z,66.00
2017-08-14T19:04:37.105Z,66.10
2017-08-14T19:07:04.605Z,66.50
2017-08-14T19:09:33.045Z,66.70
2017-08-14T19:12:00.371Z,67.40
2017-08-14T19:14:27.828Z,67.20
2017-08-14T19:16:55.294Z,67.40
2017-08-14T19:19:22.750Z,67.40
2017-08-14T19:21:50.296Z,67.40
2017-08-14T19:24:17.760Z,67.40
2017-08-14T19:26:45.241Z,67.30
2017-08-14T19:29:14.118Z,67.40
2017-08-14T19:31:41.608Z,67.40
2017-08-14T19:34:09.066Z,67.70
2017-08-14T19:36:36.524Z,67.60
2017-08-14T19:39:03.980Z,67.50
2017-08-14T19:41:31.455Z,67.00
2017-08-14T19:43:58.914Z,67.60
2017-08-14T19:46:26.388Z,67.70
2017-08-14T19:48:54.641Z,67.90
2017-08-14T19:51:22.080Z,67.90
2017-08-14T19:53:49.529Z,68.00
2017-08-14T19:56:16.976Z,68.00
2017-08-14T19:58:45.205Z,68.40
2017-08-14T20:01:12.659Z,68.20
2017-08-14T20:03:40.109Z,68.50
2017-08-14T20:06:07.562Z,68.60
2017-08-14T20:08:35.063Z,68.90
2017-08-14T20:11:02.520Z,68.90
2017-08-14T20:13:29.968Z,68.90
2017-08-14T20:15:57.541Z,69.00
2017-08-14T20:18:25.021Z,69.20
2017-08-14T20:20:52.477Z,69.40
2017-08-14T20:23:20.289Z,69.50
2017-08-14T20:25:48.513Z,69.70
2017-08-14T20:28:15.974Z,69.60
2017-08-14T20:30:43.429Z,69.50
2017-08-14T20:33:10.907Z,69.50
2017-08-14T20:35:38.361Z,69.50
2017-08-14T20:38:05.832Z,69.50
2017-08-14T20:40:33.288Z,69.70
2017-08-14T20:43:00.737Z,69.50
2017-08-14T20:45:28.197Z,69.60
2017-08-14T20:47:55.697Z,69.70
2017-08-14T20:50:23.153Z,70.40
2017-08-14T20:52:50.613Z,69.70
2017-08-14T20:55:18.325Z,70.00
2017-08-14T20:57:46.537Z,70.40
2017-08-14T21:00:14.000Z,70.40
2017-08-14T21:02:42.044Z,71.30
2017-08-14T21:05:10.364Z,70.50
2017-08-14T21:07:37.821Z,70.40
2017-08-14T21:10:05.282Z,70.50
2017-08-14T21:12:32.752Z,71.30
2017-08-14T21:15:00.202Z,70.60
2017-08-14T21:17:27.661Z,70.70
2017-08-14T21:19:55.115Z,70.70
2017-08-14T21:22:22.577Z,70.70
2017-08-14T21:24:50.449Z,70.70
2017-08-14T21:27:17.910Z,70.80
2017-08-14T21:29:47.065Z,71.10
2017-08-14T21:32:14.513Z,71.10
2017-08-14T21:34:41.967Z,71.20
2017-08-14T21:37:12.990Z,71.50
2017-08-14T21:39:40.444Z,71.60
2017-08-14T21:42:08.657Z,72.00
2017-08-14T21:44:36.117Z,71.90
2017-08-14T21:47:03.576Z,71.80
2017-08-14T21:49:31.051Z,71.90
2017-08-14T21:51:58.508Z,71.90
2017-08-14T21:54:25.985Z,72.00
2017-08-14T21:56:53.462Z,71.90
2017-08-14T21:59:20.930Z,71.90
2017-08-14T22:01:48.449Z,71.90
2017-08-14T22:04:15.934Z,72.00
2017-08-14T22:06:43.421Z,71.90
2017-08-14T22:09:10.864Z,71.80
2017-08-14T22:11:38.328Z,71.80
2017-08-14T22:14:05.804Z,71.80
2017-08-14T22:16:33.243Z,71.80
2017-08-14T22:19:00.699Z,71.90
2017-08-14T22:21:28.635Z,71.90
2017-08-14T22:23:56.893Z,72.10
2017-08-14T22:26:24.360Z,72.00
2017-08-14T22:28:51.803Z,72.10
2017-08-14T22:31:19.255Z,72.20
2017-08-14T22:33:46.716Z,72.20
2017-08-14T22:36:14.181Z,72.20
2017-08-14T22:38:41.645Z,72.30
2017-08-14T22:41:09.101Z,72.30
2017-08-14T22:43:36.557Z,72.30
2017-08-14T22:46:04.024Z,72.30
2017-08-14T22:48:31.497Z,72.20
2017-08-14T22:50:59.133Z,72.30
2017-08-14T22:53:26.601Z,72.50
2017-08-14T22:55:54.061Z,72.70
2017-08-14T22:58:22.361Z,72.60
2017-08-14T23:00:49.824Z,72.70
2017-08-14T23:03:17.281Z,72.60
2017-08-14T23:05:44.757Z,72.70
2017-08-14T23:08:12.205Z,72.80
2017-08-14T23:10:39.659Z,72.90
2017-08-14T23:13:07.113Z,72.90
2017-08-14T23:15:34.562Z,73.00
2017-08-14T23:18:02.775Z,73.00
2017-08-14T23:20:30.233Z,73.00
2017-08-14T23:22:57.722Z,73.10
2017-08-14T23:25:25.242Z,73.50
2017-08-14T23:27:53.464Z,73.50
2017-08-14T23:30:20.951Z,73.50
2017-08-14T23:32:48.389Z,73.50
2017-08-14T23:35:15.840Z,73.50
2017-08-14T23:37:43.334Z,73.40
2017-08-14T23:40:10.788Z,73.40
2017-08-14T23:42:38.235Z,73.80
2017-08-14T23:45:05.698Z,73.90
2017-08-14T23:47:33.154Z,73.90
2017-08-14T23:50:00.620Z,73.70
2017-08-14T23:52:28.110Z,73.70
2017-08-14T23:54:56.493Z,73.60
2017-08-14T23:57:24.727Z,73.70
2017-08-14T23:59:52.184Z,73.60
